createdAt,value
2019-04-03T00:02:16.272Z,7.10
2019-04-03T00:05:19.780Z,7.10
2019-04-03T00:08:23.631Z,7.10
2019-04-03T00:11:27.197Z,7.10
2019-04-03T00:14:30.597Z,7.10
2019-04-03T00:17:34.101Z,7.10
2019-04-03T00:20:37.525Z,7.20
2019-04-03T00:23:40.899Z,7.20
2019-04-03T00:26:44.300Z,7.30
2019-04-03T00:29:47.904Z,7.40
2019-04-03T00:32:53.072Z,7.40
2019-04-03T00:35:56.639Z,7.40
2019-04-03T00:39:00.088Z,7.50
2019-04-03T00:42:03.651Z,7.50
2019-04-03T00:45:07.272Z,7.50
2019-04-03T00:48:10.941Z,7.60
2019-04-03T00:51:14.607Z,7.60
2019-04-03T00:54:18.113Z,7.50
2019-04-03T00:57:21.635Z,7.60
2019-04-03T01:00:26.437Z,7.60
2019-04-03T01:03:30.341Z,7.60
2019-04-03T01:06:33.896Z,7.60
2019-04-03T01:09:37.568Z,7.70
2019-04-03T01:12:41.030Z,7.60
2019-04-03T01:15:44.584Z,7.50
2019-04-03T01:18:48.031Z,7.60
2019-04-03T01:21:51.440Z,7.50
2019-04-03T01:24:55.087Z,7.40
2019-04-03T01:27:58.650Z,7.30
2019-04-03T01:31:02.217Z,7.20
2019-04-03T01:34:05.638Z,7.10
2019-04-03T01:37:09.062Z,7.10
2019-04-03T01:40:12.587Z,7.00
2019-04-03T01:43:15.947Z,6.90
2019-04-03T01:46:19.508Z,6.80
2019-04-03T01:49:23.032Z,6.70
2019-04-03T01:52:26.351Z,6.70
2019-04-03T01:55:30.006Z,6.70
2019-04-03T01:58:35.971Z,6.70
2019-04-03T02:01:39.148Z,6.70
2019-04-03T02:04:43.039Z,6.60
2019-04-03T02:07:47.452Z,6.60
2019-04-03T02:10:51.003Z,6.60
2019-04-03T02:13:54.587Z,6.70
2019-04-03T02:16:58.032Z,6.60
2019-04-03T02:20:01.612Z,6.70
2019-04-03T02:23:04.988Z,6.60
2019-04-03T02:26:08.418Z,6.60
2019-04-03T02:29:11.980Z,6.60
2019-04-03T02:32:15.278Z,6.40
2019-04-03T02:35:18.716Z,6.40
2019-04-03T02:38:23.806Z,6.40
2019-04-03T02:41:27.224Z,6.40
2019-04-03T02:44:30.602Z,6.40
2019-04-03T02:47:34.783Z,6.50
2019-04-03T02:50:38.475Z,6.50
2019-04-03T02:53:42.193Z,6.40
2019-04-03T02:56:46.160Z,6.30
2019-04-03T02:59:52.090Z,6.30
2019-04-03T03:02:55.323Z,6.20
2019-04-03T03:06:00.582Z,6.20
2019-04-03T03:09:05.323Z,6.20
2019-04-03T03:12:08.976Z,6.20
2019-04-03T03:15:12.795Z,6.20
2019-04-03T03:18:16.209Z,6.10
2019-04-03T03:21:20.376Z,6.10
2019-04-03T03:24:24.421Z,6.10
2019-04-03T03:27:29.486Z,6.10
2019-04-03T03:30:44.348Z,6.20
2019-04-03T03:33:40.450Z,6.20
2019-04-03T03:36:43.660Z,6.20
2019-04-03T03:39:47.277Z,6.20
2019-04-03T03:42:50.721Z,6.20
2019-04-03T03:45:54.437Z,6.20
2019-04-03T03:48:58.143Z,6.20
2019-04-03T03:52:04.486Z,6.20
2019-04-03T03:55:08.363Z,6.20
2019-04-03T03:58:13.409Z,6.30
2019-04-03T04:01:17.483Z,6.20
2019-04-03T04:04:20.750Z,6.10
2019-04-03T04:07:23.971Z,6.10
2019-04-03T04:10:28.737Z,6.00
2019-04-03T04:13:32.483Z,6.00
2019-04-03T04:16:37.335Z,6.00
2019-04-03T04:19:41.918Z,6.00
2019-04-03T04:22:48.881Z,6.00
2019-04-03T04:25:51.256Z,6.00
2019-04-03T04:28:54.604Z,6.00
2019-04-03T04:31:57.876Z,6.00
2019-04-03T04:35:01.264Z,6.00
2019-04-03T04:38:04.715Z,6.00
2019-04-03T04:41:08.332Z,6.00
2019-04-03T04:44:14.341Z,6.00
2019-04-03T04:47:17.267Z,6.00
2019-04-03T04:50:25.279Z,5.90
2019-04-03T04:53:30.222Z,5.90
2019-04-03T04:56:33.816Z,5.90
2019-04-03T04:59:37.303Z,5.90
2019-04-03T05:02:40.415Z,6.00
2019-04-03T05:05:43.691Z,6.00
2019-04-03T05:08:47.176Z,6.00
2019-04-03T05:11:51.843Z,6.00
2019-04-03T05:14:55.212Z,6.00
2019-04-03T05:17:58.495Z,6.00
2019-04-03T05:21:01.995Z,6.10
2019-04-03T05:24:12.829Z,6.10
2019-04-03T05:27:10.688Z,6.20
2019-04-03T05:30:29.507Z,6.30
2019-04-03T05:33:32.907Z,6.30
2019-04-03T05:36:36.543Z,6.40
2019-04-03T05:39:39.719Z,6.40
2019-04-03T05:42:43.239Z,6.60
2019-04-03T05:45:46.515Z,6.70
2019-04-03T05:48:50.051Z,6.80
2019-04-03T05:51:53.458Z,6.80
2019-04-03T05:54:57.397Z,6.90
2019-04-03T05:58:00.860Z,7.00
2019-04-03T06:01:06.609Z,7.10
2019-04-03T06:04:10.537Z,7.20
2019-04-03T06:07:17.449Z,7.20
2019-04-03T06:10:19.948Z,7.40
2019-04-03T06:13:24.379Z,7.40
2019-04-03T06:16:27.987Z,7.60
2019-04-03T06:19:34.063Z,7.70
2019-04-03T06:22:36.702Z,7.80
2019-04-03T06:25:40.119Z,8.00
2019-04-03T06:28:46.368Z,8.20
2019-04-03T06:31:48.938Z,8.30
2019-04-03T06:34:52.484Z,8.40
2019-04-03T06:37:55.894Z,8.50
2019-04-03T06:40:59.389Z,8.60
2019-04-03T06:44:02.997Z,8.80
2019-04-03T06:47:06.519Z,8.80
2019-04-03T06:50:11.943Z,9.00
2019-04-03T06:53:15.530Z,9.20
2019-04-03T06:56:18.940Z,9.30
2019-04-03T06:59:22.131Z,9.50
2019-04-03T07:02:27.739Z,9.60
2019-04-03T07:05:30.470Z,9.50
2019-04-03T07:08:36.146Z,9.60
2019-04-03T07:11:39.107Z,9.70
2019-04-03T07:14:42.409Z,9.90
2019-04-03T07:17:46.740Z,10.20
2019-04-03T07:20:52.225Z,10.50
2019-04-03T07:24:00.388Z,10.80
2019-04-03T07:27:02.801Z,10.90
2019-04-03T07:30:07.205Z,11.10
2019-04-03T07:33:10.675Z,11.30
2019-04-03T07:36:15.119Z,11.30
2019-04-03T07:39:19.807Z,11.50
2019-04-03T07:42:24.581Z,11.60
2019-04-03T07:45:28.419Z,11.90
2019-04-03T07:48:33.307Z,12.50
2019-04-03T07:51:37.137Z,13.00
2019-04-03T07:54:40.469Z,13.50
2019-04-03T07:57:43.876Z,14.00
2019-04-03T08:00:47.440Z,14.60
2019-04-03T08:03:52.095Z,14.70
2019-04-03T08:06:56.032Z,14.80
2019-04-03T08:09:59.434Z,14.90
2019-04-03T08:13:02.506Z,15.10
2019-04-03T08:16:06.085Z,15.50
2019-04-03T08:19:10.690Z,15.50
2019-04-03T08:22:14.153Z,15.90
2019-04-03T08:25:17.604Z,15.80
2019-04-03T08:28:21.179Z,16.10
2019-04-03T08:31:24.749Z,16.70
2019-04-03T08:34:30.766Z,16.90
2019-04-03T08:37:33.504Z,17.00
2019-04-03T08:40:36.478Z,17.10
2019-04-03T08:43:39.561Z,17.30
2019-04-03T08:46:43.891Z,17.80
2019-04-03T08:49:47.044Z,17.90
2019-04-03T08:52:50.041Z,18.50
2019-04-03T08:55:55.261Z,18.40
2019-04-03T08:58:58.549Z,18.90
2019-04-03T09:02:03.021Z,19.40
2019-04-03T09:05:07.085Z,19.50
2019-04-03T09:08:10.672Z,19.30
2019-04-03T09:11:14.247Z,19.50
2019-04-03T09:14:19.471Z,19.00
2019-04-03T09:17:22.882Z,19.40
2019-04-03T09:20:26.718Z,19.90
2019-04-03T09:23:30.467Z,20.80
2019-04-03T09:26:37.125Z,21.10
2019-04-03T09:29:39.139Z,21.40
2019-04-03T09:32:42.476Z,20.60
2019-04-03T09:35:45.953Z,20.30
2019-04-03T09:38:49.450Z,20.90
2019-04-03T09:41:52.948Z,21.40
2019-04-03T09:44:56.764Z,21.10
2019-04-03T09:48:00.318Z,21.30
2019-04-03T09:51:03.867Z,22.20
2019-04-03T09:54:07.494Z,22.60
2019-04-03T09:57:11.011Z,22.10
2019-04-03T10:00:14.786Z,21.80
2019-04-03T10:03:18.133Z,21.50
2019-04-03T10:06:21.355Z,21.70
2019-04-03T10:09:25.177Z,22.60
2019-04-03T10:12:31.766Z,22.60
2019-04-03T10:15:34.552Z,22.40
2019-04-03T10:18:39.394Z,22.90
2019-04-03T10:21:43.129Z,23.50
2019-04-03T10:24:47.591Z,23.70
2019-04-03T10:27:51.119Z,23.70
2019-04-03T10:30:54.645Z,23.30
2019-04-03T10:33:58.022Z,23.70
2019-04-03T10:37:01.645Z,23.90
2019-04-03T10:40:06.914Z,24.10
2019-04-03T10:43:10.537Z,24.00
2019-04-03T10:46:14.260Z,24.30
2019-04-03T10:49:17.793Z,25.00
2019-04-03T10:52:21.179Z,25.50
2019-04-03T10:55:27.293Z,25.50
2019-04-03T10:58:30.236Z,26.50
2019-04-03T11:01:33.773Z,26.80
2019-04-03T11:04:37.323Z,26.00
2019-04-03T11:07:41.158Z,25.80
2019-04-03T11:10:44.765Z,26.40
2019-04-03T11:13:48.533Z,27.00
2019-04-03T11:16:52.583Z,27.60
2019-04-03T11:19:56.088Z,27.40
2019-04-03T11:23:06.323Z,27.00
2019-04-03T11:26:04.985Z,27.00
2019-04-03T11:29:10.007Z,27.30
2019-04-03T11:32:13.984Z,26.60
2019-04-03T11:35:20.671Z,25.50
2019-04-03T11:38:27.889Z,25.30
2019-04-03T11:41:28.041Z,24.60
2019-04-03T11:44:31.337Z,25.00
2019-04-03T11:47:34.710Z,25.20
2019-04-03T11:50:39.964Z,25.30
2019-04-03T11:53:45.353Z,25.50
2019-04-03T11:56:47.994Z,25.40
2019-04-03T11:59:51.210Z,25.10
2019-04-03T12:02:54.409Z,24.10
2019-04-03T12:05:57.417Z,24.40
2019-04-03T12:09:01.223Z,24.30
2019-04-03T12:12:09.443Z,24.20
2019-04-03T12:15:15.693Z,25.40
2019-04-03T12:18:17.847Z,25.70
2019-04-03T12:21:21.640Z,24.90
2019-04-03T12:24:33.197Z,24.50
2019-04-03T12:27:36.816Z,25.20
2019-04-03T12:30:40.386Z,24.50
2019-04-03T12:33:54.283Z,24.60
2019-04-03T12:36:50.213Z,24.80
2019-04-03T12:39:54.108Z,25.40
2019-04-03T12:42:58.535Z,26.10
2019-04-03T12:46:03.112Z,27.30
2019-04-03T12:49:08.010Z,28.20
2019-04-03T12:52:11.370Z,27.80
2019-04-03T12:55:15.179Z,28.00
2019-04-03T12:58:18.871Z,26.60
2019-04-03T13:01:22.086Z,26.90
2019-04-03T13:04:26.524Z,27.50
2019-04-03T13:07:30.812Z,28.30
2019-04-03T13:10:40.638Z,28.80
2019-04-03T13:13:39.363Z,28.10
2019-04-03T13:16:43.542Z,29.00
2019-04-03T13:19:48.003Z,29.30
2019-04-03T13:22:51.837Z,27.90
2019-04-03T13:25:55.311Z,27.30
2019-04-03T13:28:59.051Z,27.60
2019-04-03T13:32:02.419Z,27.20
2019-04-03T13:35:06.448Z,26.40
2019-04-03T13:38:09.872Z,26.10
2019-04-03T13:41:13.476Z,25.00
2019-04-03T13:44:16.942Z,24.40
2019-04-03T13:47:20.528Z,24.70
2019-04-03T13:50:24.115Z,25.30
2019-04-03T13:53:27.736Z,25.20
2019-04-03T13:56:31.433Z,24.50
2019-04-03T13:59:34.987Z,24.20
2019-04-03T14:02:38.674Z,23.90
2019-04-03T14:05:43.433Z,23.60
2019-04-03T14:08:47.623Z,23.20
2019-04-03T14:11:51.275Z,22.20
2019-04-03T14:14:54.967Z,22.40
2019-04-03T14:17:59.254Z,22.70
2019-04-03T14:21:02.931Z,23.00
2019-04-03T14:24:08.267Z,23.40
2019-04-03T14:27:19.391Z,23.60
2019-04-03T14:30:18.068Z,23.90
2019-04-03T14:33:23.451Z,24.20
2019-04-03T14:36:27.860Z,23.10
2019-04-03T14:39:31.874Z,22.90
2019-04-03T14:42:35.558Z,23.80
2019-04-03T14:45:40.235Z,23.80
2019-04-03T14:48:43.726Z,23.50
2019-04-03T14:51:47.645Z,22.40
2019-04-03T14:54:52.081Z,22.20
2019-04-03T14:57:56.353Z,22.00
2019-04-03T15:01:01.144Z,21.90
2019-04-03T15:04:05.319Z,21.80
2019-04-03T15:07:12.023Z,21.70
2019-04-03T15:10:18.614Z,21.40
2019-04-03T15:13:24.525Z,21.20
2019-04-03T15:16:31.370Z,21.10
2019-04-03T15:19:35.832Z,21.10
2019-04-03T15:27:02.877Z,21.30
2019-04-03T15:30:09.912Z,21.10
2019-04-03T15:33:12.127Z,21.00
2019-04-03T15:36:15.217Z,20.80
2019-04-03T15:39:19.528Z,20.70
2019-04-03T15:42:24.365Z,20.70
2019-04-03T15:45:29.073Z,20.70
2019-04-03T15:48:48.999Z,20.70
2019-04-03T15:51:53.547Z,20.50
2019-04-03T15:54:57.437Z,20.70
2019-04-03T15:58:02.334Z,20.80
2019-04-03T16:01:07.886Z,20.90
2019-04-03T16:04:12.848Z,20.80
2019-04-03T16:07:17.460Z,20.80
2019-04-03T16:10:23.239Z,21.10
2019-04-03T16:13:28.560Z,21.80
2019-04-03T16:16:32.784Z,22.40
2019-04-03T16:19:37.443Z,22.30
2019-04-03T16:22:41.812Z,22.30
2019-04-03T16:25:55.561Z,22.30
2019-04-03T16:29:00.144Z,22.40
2019-04-03T16:32:05.574Z,22.30
2019-04-03T16:35:12.677Z,22.10
2019-04-03T16:38:18.761Z,21.80
2019-04-03T16:41:24.927Z,21.90
2019-04-03T16:44:29.848Z,21.60
2019-04-03T16:47:34.579Z,21.40
2019-04-03T16:50:38.541Z,21.10
2019-04-03T16:53:42.510Z,20.50
2019-04-03T16:56:48.848Z,20.20
2019-04-03T16:59:54.065Z,19.80
2019-04-03T17:02:58.298Z,19.30
2019-04-03T17:06:02.049Z,19.00
2019-04-03T17:09:07.759Z,18.90
2019-04-03T17:12:11.484Z,18.70
2019-04-03T17:15:16.628Z,18.50
2019-04-03T17:18:20.342Z,18.30
2019-04-03T17:21:23.855Z,18.00
2019-04-03T17:24:27.403Z,17.80
2019-04-03T17:27:30.950Z,17.50
2019-04-03T17:30:35.279Z,17.40
2019-04-03T17:33:38.798Z,17.20
2019-04-03T17:36:42.402Z,17.10
2019-04-03T17:39:45.779Z,16.90
2019-04-03T17:42:49.552Z,16.70
2019-04-03T17:45:53.797Z,16.50
2019-04-03T17:48:58.125Z,16.40
2019-04-03T17:52:04.690Z,16.20
2019-04-03T17:55:10.007Z,16.00
2019-04-03T17:58:16.447Z,15.90
2019-04-03T18:01:18.993Z,15.80
2019-04-03T18:04:22.494Z,15.70
2019-04-03T18:07:28.217Z,15.60
2019-04-03T18:10:31.401Z,15.40
2019-04-03T18:13:34.698Z,15.30
2019-04-03T18:16:38.572Z,15.20
2019-04-03T18:19:42.615Z,15.00
2019-04-03T18:23:10.481Z,14.90
2019-04-03T18:26:13.344Z,14.70
2019-04-03T18:29:17.595Z,14.60
2019-04-03T18:32:21.558Z,14.40
2019-04-03T18:35:26.148Z,14.30
2019-04-03T18:38:30.859Z,14.10
2019-04-03T18:41:35.105Z,14.00
2019-04-03T18:44:39.320Z,13.90
2019-04-03T18:47:45.913Z,13.80
2019-04-03T18:50:50.974Z,13.70
2019-04-03T18:53:54.334Z,13.60
2019-04-03T18:56:57.938Z,13.50
2019-04-03T19:00:01.789Z,13.40
2019-04-03T19:03:06.486Z,13.30
2019-04-03T19:06:13.431Z,13.20
2019-04-03T19:09:16.550Z,13.10
2019-04-03T19:12:20.034Z,13.10
2019-04-03T19:15:23.981Z,13.10
2019-04-03T19:18:28.027Z,13.20
2019-04-03T19:21:31.621Z,13.20
2019-04-03T19:24:34.962Z,13.10
2019-04-03T19:27:38.648Z,13.20
2019-04-03T19:30:43.005Z,13.10
2019-04-03T19:33:47.237Z,13.10
2019-04-03T19:36:52.137Z,13.00
2019-04-03T19:39:55.794Z,13.00
2019-04-03T19:42:59.613Z,13.00
2019-04-03T19:46:03.253Z,13.10
2019-04-03T19:49:07.317Z,13.10
2019-04-03T19:52:11.055Z,13.20
2019-04-03T19:55:15.288Z,13.30
2019-04-03T19:58:19.389Z,13.30
2019-04-03T20:01:24.056Z,13.40
2019-04-03T20:04:40.216Z,13.40
2019-04-03T20:07:43.682Z,13.40
2019-04-03T20:10:48.991Z,13.40
2019-04-03T20:13:51.518Z,13.40
2019-04-03T20:16:58.306Z,13.30
2019-04-03T20:19:59.929Z,13.30
2019-04-03T20:23:04.539Z,13.30
2019-04-03T20:26:08.043Z,13.40
2019-04-03T20:29:11.347Z,13.30
2019-04-03T20:32:15.651Z,13.20
2019-04-03T20:35:18.898Z,13.20
2019-04-03T20:38:22.119Z,13.30
2019-04-03T20:41:25.213Z,13.20
2019-04-03T20:44:28.447Z,13.20
2019-04-03T20:47:31.537Z,13.20
2019-04-03T20:50:40.850Z,13.20
2019-04-03T20:53:43.975Z,13.20
2019-04-03T20:56:57.167Z,13.10
2019-04-03T21:00:01.807Z,13.20
2019-04-03T21:02:57.306Z,13.20
2019-04-03T21:06:00.502Z,13.10
2019-04-03T21:09:06.275Z,13.10
2019-04-03T21:12:11.499Z,13.10
2019-04-03T21:15:14.829Z,13.00
2019-04-03T21:18:18.967Z,12.80
2019-04-03T21:21:25.402Z,12.70
2019-04-03T21:24:28.010Z,12.60
2019-04-03T21:27:31.270Z,12.50
2019-04-03T21:30:34.362Z,12.50
2019-04-03T21:33:37.547Z,12.40
2019-04-03T21:36:40.854Z,12.30
2019-04-03T21:39:44.486Z,12.20
2019-04-03T21:42:47.655Z,12.00
2019-04-03T21:45:50.945Z,11.90
2019-04-03T21:48:54.154Z,11.80
2019-04-03T21:51:57.346Z,11.70
2019-04-03T21:55:00.467Z,11.60
2019-04-03T21:58:04.753Z,11.60
2019-04-03T22:01:18.274Z,11.50
2019-04-03T22:04:22.858Z,11.40
2019-04-03T22:07:28.216Z,11.30
2019-04-03T22:10:33.127Z,11.30
2019-04-03T22:13:38.223Z,11.20
2019-04-03T22:16:41.946Z,11.10
2019-04-03T22:19:45.501Z,11.10
2019-04-03T22:22:48.643Z,11.00
2019-04-03T22:25:51.734Z,11.00
2019-04-03T22:28:54.830Z,11.00
2019-04-03T22:31:58.021Z,11.00
2019-04-03T22:35:20.299Z,11.00
2019-04-03T22:38:23.561Z,11.10
2019-04-03T22:41:26.742Z,11.00
2019-04-03T22:44:30.154Z,11.00
2019-04-03T22:47:33.743Z,10.90
2019-04-03T22:50:37.062Z,10.90
2019-04-03T22:53:41.695Z,10.80
2019-04-03T22:56:45.926Z,10.80
2019-04-03T22:59:50.432Z,10.80
2019-04-03T23:02:53.672Z,10.70
2019-04-03T23:05:56.718Z,10.70
2019-04-03T23:08:59.863Z,10.60
2019-04-03T23:12:03.656Z,10.60
2019-04-03T23:15:09.448Z,10.60
2019-04-03T23:18:13.974Z,10.50
2019-04-03T23:21:17.436Z,10.50
2019-04-03T23:24:20.802Z,10.50
2019-04-03T23:27:24.251Z,10.40
2019-04-03T23:30:27.597Z,10.50
2019-04-03T23:33:31.242Z,10.50
2019-04-03T23:36:34.653Z,10.50
2019-04-03T23:39:38.111Z,10.40
2019-04-03T23:42:41.653Z,10.40
2019-04-03T23:45:45.124Z,10.40
2019-04-03T23:48:48.959Z,10.50
2019-04-03T23:51:52.983Z,10.40
2019-04-03T23:54:56.338Z,10.40
2019-04-03T23:57:59.780Z,10.40
